Latest Coastal Weather Observations for Tewantin

IDQ60701

Issued at 11:15 pm EST Thursday 30 October 2014 (issued every 10 minutes, with the page automatically refreshed every 10 minutes)

About coastal observations | Map of coastal stations | Coastal observations for QLD | Marine services | Other Formats
Station Details ID: 040908 Name: TEWANTIN RSL PARK Lat: -26.39 Lon: 153.04 Height: 6.4 m
Data from the previous 72 hours. | See also: Recent months at Tewantin
Date/Time
EST
Temp

°C
Wind Pressure Rain
since 9am
mm
Weather Cloud Vis
km
Sea
Height
m
Swell
Dir
 
Speed
knots
Gust
knots
hPa Trend Height
m
Period
s
Dir
30/11:00pm 22.5 N 3 5 1016.2 - 0.0 - - - - - - -
30/10:30pm 22.6 NW 3 4 1016.4 - 0.0 - - - - - - -
30/10:00pm 22.6 NNE 3 4 1016.4 - 0.0 - - - - - - -
30/09:30pm 22.5 N 3 4 1016.4 - 0.0 - - - - - - -
30/09:00pm 22.5 N 3 5 1016.2 - 0.0 - - - - - - -
30/08:30pm 22.5 NE 3 5 1016.1 - 0.0 - - - - - - -
30/08:00pm 22.6 NNE 3 4 1015.9 - 0.0 - - - - - - -
30/07:30pm 22.8 NNE 4 6 1015.8 - 0.0 - - - - - - -
30/07:00pm 23.0 NE 4 6 1015.2 - 0.0 - - - - - - -
30/06:30pm 23.0 NE 4 6 1014.8 - 0.0 - - - - - - -
30/06:00pm 23.3 ENE 5 7 1014.6 - 0.0 - - - - - - -
30/05:30pm 23.5 ENE 7 10 1014.3 - 0.0 - - - - - - -
30/05:00pm 23.9 NE 7 11 1014.2 - 0.0 - - - - - - -
30/04:30pm 24.1 ENE 8 11 1013.9 - 0.0 - - - - - - -
30/04:00pm 24.1 ENE 8 12 1014.0 - 0.0 - - - - - - -
30/03:30pm 24.7 NE 8 12 1013.7 - 0.0 - - - - - - -
30/03:00pm 24.9 ENE 9 13 1013.7 - 0.0 - - - - - - -
30/02:30pm 25.5 NE 8 12 1014.0 - 0.0 - - - - - - -
30/02:00pm 25.6 ENE 8 11 1014.1 - 0.0 - - - - - - -
30/01:30pm 26.5 NE 8 14 1014.6 - 0.0 - - - - - - -
30/01:00pm 26.3 E 7 11 1014.9 - 0.0 - - - - - - -
30/12:30pm 26.8 NE 5 8 1015.4 - 0.0 - - - - - - -
30/12:00pm 26.3 E 6 10 1015.9 - 0.0 - - - - - - -
30/11:30am 25.7 E 6 12 1016.3 - 0.0 - - - - - - -
30/11:00am 25.6 E 7 11 1016.7 - 0.0 - - - - - - -
30/10:30am 25.4 ESE 7 11 1017.0 - 0.0 - - - - - - -
30/10:00am 24.8 ESE 7 11 1017.2 - 0.0 - - - - - - -
30/09:30am 24.5 ESE 7 10 1017.6 - 0.0 - - - - - - -
30/09:00am 24.2 SE 7 10 1017.8 - 0.0 - - - - - - -
30/08:30am 24.3 SSE 5 7 1017.7 - 0.0 - - - - - - -
30/08:00am 24.4 S 7 9 1017.8 - 0.0 - - - - - - -
30/07:30am 24.1 S 5 9 1017.7 - 0.0 - - - - - - -
30/07:00am 22.6 S 6 9 1017.5 - 0.0 - - - - - - -
30/06:30am 21.9 S 5 8 1017.2 - 0.0 - - - - - - -
30/06:00am 21.5 S 5 6 1017.0 - 0.0 - - - - - - -
30/05:30am 21.4 S 5 6 1016.4 - 0.0 - - - - - - -
30/05:00am 21.3 S 6 8 1016.0 - 0.0 - - - - - - -
30/04:30am 21.4 S 6 8 1015.8 - 0.0 - - - - - - -
30/04:00am 21.5 S 5 7 1015.5 - 0.0 - - - - - - -
30/03:30am 21.6 S 4 7 1015.4 - 0.0 - - - - - - -
30/03:00am 21.6 SSW 4 6 1015.4 - 0.0 - - - - - - -
30/02:30am 21.6 S 5 7 1015.4 - 0.0 - - - - - - -
30/02:00am 21.6 SSW 4 6 1015.5 - 0.0 - - - - - - -
30/01:30am 21.8 S 4 7 1015.6 - 0.0 - - - - - - -
30/01:00am 21.9 S 5 7 1015.7 - 0.0 - - - - - - -
30/12:30am 22.1 S 5 7 1015.8 - 0.0 - - - - - - -
30/12:00am 22.4 S 5 7 1016.3 - 0.0 - - - - - - -
 
Date/Time
EST
Temp

°C
Wind Pressure Rain
since 9am
mm
Weather Cloud Vis
km
Sea
Height
m
Swell
Dir
 
Speed
knots
Gust
knots
hPa Trend Height
m
Period
s
Dir
29/11:30pm 22.7 S 5 8 1016.5 - 0.0 - - - - - - -
29/11:00pm 22.8 SSE 5 7 1016.8 - 0.0 - - - - - - -
29/10:30pm 23.0 SE 7 11 1016.8 - 0.0 - - - - - - -
29/10:00pm 23.0 SE 6 11 1016.9 - 0.0 - - - - - - -
29/09:30pm 23.1 SE 6 8 1016.7 - 0.0 - - - - - - -
29/09:00pm 23.1 SE 5 9 1016.8 - 0.0 - - - - - - -
29/08:30pm 22.9 SSE 4 7 1016.6 - 0.0 - - - - - - -
29/08:00pm 23.1 SE 6 10 1016.3 - 0.0 - - - - - - -
29/07:30pm 23.3 ESE 7 11 1016.1 - 0.0 - - - - - - -
29/07:00pm 23.2 SE 6 8 1015.8 - 0.0 - - - - - - -
29/06:30pm 23.2 SSE 6 11 1015.7 - 0.0 - - - - - - -
29/06:00pm 23.4 SE 8 14 1015.3 - 0.0 - - - - - - -
29/05:30pm 23.6 SE 9 15 1014.8 - 0.0 - - - - - - -
29/05:00pm 23.7 ESE 8 14 1014.5 - 0.0 - - - - - - -
29/04:30pm 23.9 ESE 10 16 1014.2 - 0.0 - - - - - - -
29/04:00pm 24.1 SE 11 16 1013.6 - 0.0 - - - - - - -
29/03:30pm 24.4 ESE 11 17 1013.6 - 0.0 - - - - - - -
29/03:00pm 24.8 ESE 12 18 1013.5 - 0.0 - - - - - - -
29/02:30pm 24.8 ESE 13 18 1013.6 - 0.0 - - - - - - -
29/02:00pm 24.9 ESE 11 17 1013.6 - 0.0 - - - - - - -
29/01:30pm 24.8 ESE 12 18 1013.7 - 0.0 - - - - - - -
29/01:00pm 25.2 ESE 14 20 1013.8 - 0.0 - - - - - - -
29/12:30pm 25.6 ESE 12 20 1013.9 - 0.0 - - - - - - -
29/12:00pm 25.6 ESE 11 16 1014.0 - 0.0 - - - - - - -
29/11:30am 25.1 ESE 12 17 1014.3 - 0.0 - - - - - - -
29/11:00am 26.2 SE 9 15 1014.5 - 0.0 - - - - - - -
29/10:30am 26.6 SSE 7 11 1014.6 - 0.0 - - - - - - -
29/10:00am 25.6 SE 8 13 1014.7 - 0.0 - - - - - - -
29/09:30am 24.8 SE 9 13 1014.8 - 0.0 - - - - - - -
29/09:00am 24.7 SE 7 12 1014.6 - 1.2 - - - - - - -
29/08:30am 24.3 ESE 6 10 1014.5 - 1.2 - - - - - - -
29/08:00am 23.5 SE 5 7 1014.3 - 1.2 - - - - - - -
29/07:30am 22.9 S 6 8 1014.1 - 1.2 - - - - - - -
29/07:00am 22.9 S 3 5 1013.8 - 1.2 - - - - - - -
29/06:30am 22.3 S 3 5 1013.4 - 1.2 - - - - - - -
29/06:00am 21.3 S 3 5 1013.0 - 1.2 - - - - - - -
29/05:30am 20.4 CALM 0 0 1012.6 - 1.2 - - - - - - -
29/05:00am 20.0 SSW 1 4 1012.4 - 1.2 - - - - - - -
29/04:30am 20.2 CALM 0 0 1012.1 - 1.2 - - - - - - -
29/04:00am 20.1 S 1 4 1011.7 - 1.2 - - - - - - -
29/03:30am 20.1 CALM 0 0 1011.4 - 1.2 - - - - - - -
29/03:00am 20.2 CALM 0 0 1011.2 - 1.2 - - - - - - -
29/02:30am 20.5 CALM 0 0 1011.2 - 1.2 - - - - - - -
29/02:00am 20.7 CALM 0 0 1011.2 - 1.2 - - - - - - -
29/01:30am 20.9 CALM 0 0 1011.3 - 1.2 - - - - - - -
29/01:00am 21.2 CALM 0 0 1011.5 - 1.2 - - - - - - -
29/12:30am 21.5 CALM 0 0 1011.5 - 1.2 - - - - - - -
29/12:00am 21.7 SW 1 3 1011.8 - 1.2 - - - - - - -
 
Date/Time
EST
Temp

°C
Wind Pressure Rain
since 9am
mm
Weather Cloud Vis
km
Sea
Height
m
Swell
Dir
 
Speed
knots
Gust
knots
hPa Trend Height
m
Period
s
Dir
28/11:30pm 21.8 CALM 0 0 1012.0 - 1.2 - - - - - - -
28/11:00pm 22.1 NW 1 3 1012.3 - 1.2 - - - - - - -
28/10:30pm 22.3 N 2 4 1012.2 - 1.2 - - - - - - -
28/10:00pm 22.3 CALM 0 3 1012.0 - 1.2 - - - - - - -
28/09:30pm 22.7 CALM 0 2 1011.7 - 1.2 - - - - - - -
28/09:00pm 23.0 S 1 4 1011.6 - 1.2 - - - - - - -
28/08:30pm 23.2 SSE 2 4 1011.3 - 1.2 - - - - - - -
28/08:00pm 23.4 ESE 2 4 1011.4 - 1.2 - - - - - - -
28/07:30pm 23.6 CALM 0 4 1011.2 - 1.2 - - - - - - -
28/07:00pm 23.9 SE 3 4 1010.9 - 1.2 - - - - - - -
28/06:30pm 24.3 SSE 4 7 1010.2 - 1.2 - - - - - - -
28/06:00pm 24.7 SE 5 9 1009.4 - 1.2 - - - - - - -
28/05:30pm 25.2 SE 5 8 1008.9 - 1.2 - - - - - - -
28/05:00pm 25.8 SSE 4 6 1008.9 - 1.2 - - - - - - -
28/04:30pm 25.8 SSE 5 8 1008.8 - 1.2 - - - - - - -
28/04:00pm 25.8 ESE 5 9 1008.7 - 1.2 - - - - - - -
28/03:30pm 25.6 E 5 9 1008.7 - 1.2 - - - - - - -
28/03:00pm 25.9 S 5 8 1009.3 - 1.2 Recent precip. - - - - - -
28/02:30pm 26.5 NE 5 8 1009.3 - 0.6 - - - - - - -
28/02:00pm 28.6 NE 7 10 1008.7 - 0.0 - - - - - - -
28/01:30pm 29.3 NNE 11 14 1009.1 - 0.0 - - - - - - -
28/01:00pm 29.0 NE 12 16 1009.4 - 0.0 - - - - - - -
28/12:30pm 28.6 NE 10 16 1009.6 - 0.0 - - - - - - -
28/12:00pm 29.4 NE 10 15 1009.7 - 0.0 - - - - - - -
28/11:30am 32.2 N 9 14 1009.8 - 0.0 - - - - - - -
28/11:00am 31.3 N 11 15 1009.8 - 0.0 - - - - - - -
28/10:30am 30.0 N 11 16 1010.3 - 0.0 - - - - - - -
28/10:00am 28.9 N 10 14 1010.7 - 0.0 - - - - - - -
28/09:30am 27.3 N 9 13 1011.1 - 0.0 - - - - - - -
28/09:00am 26.7 N 8 13 1011.3 - 7.0 Recent precip. - - - - - -
28/08:30am 26.3 N 9 13 1011.2 - 7.0 - - - - - - -
28/08:00am 25.0 N 9 14 1011.2 - 6.8 - - - - - - -
28/07:30am 24.5 NNW 7 11 1011.2 - 6.8 - - - - - - -
28/07:00am 23.4 N 7 11 1011.0 - 6.8 - - - - - - -
28/06:30am 22.7 N 6 8 1010.9 - 6.8 - - - - - - -
28/06:00am 21.9 N 7 9 1010.4 - 6.8 - - - - - - -
28/05:30am 21.4 NNW 4 6 1010.0 - 6.8 - - - - - - -
28/05:00am 21.1 NNW 3 5 1009.4 - 6.8 - - - - - - -
28/04:30am 21.2 NW 4 7 1009.3 - 6.8 - - - - - - -
28/04:00am 21.4 WNW 4 8 1009.2 - 6.8 - - - - - - -
28/03:30am 21.4 NW 6 9 1009.6 - 6.8 - - - - - - -
28/03:00am 21.8 WNW 6 13 1009.4 - 6.8 - - - - - - -
28/02:30am 22.2 NW 7 11 1009.2 - 6.8 - - - - - - -
28/02:00am 22.7 NW 7 11 1009.6 - 6.8 - - - - - - -
28/01:30am 22.5 NNW 7 11 1009.7 - 6.8 - - - - - - -
28/01:00am 22.5 NNW 7 11 1009.9 - 6.8 - - - - - - -
28/12:30am 23.4 WNW 3 8 1009.5 - 6.8 - - - - - - -
28/12:00am 23.5 NW 5 11 1009.8 - 6.8 - - - - - - -
 
Date/Time
EST
Temp

°C
Wind Pressure Rain
since 9am
mm
Weather Cloud Vis
km
Sea
Height
m
Swell
Dir
 
Speed
knots
Gust
knots
hPa Trend Height
m
Period
s
Dir
27/11:30pm 22.4 WSW 2 7 1009.8 - 6.8 - - - - - - -

Other Formats:

Comma delimited format used in spreadsheet applications
http://www.bom.gov.au/fwo/IDQ60701/IDQ60701.94570.axf

JavaScript Object Notation format (JSON) in row-major order
http://www.bom.gov.au/fwo/IDQ60701/IDQ60701.94570.json